sensor_id;sensor_type;location;lat;lon;timestamp;pressure;altitude;pressure_sealevel;temperature;humidity
10470;BME280;5282;47.052;15.458;2023-03-19T00:00:23;97520.06;;;4.23;100.00
10470;BME280;5282;47.052;15.458;2023-03-19T00:02:52;97521.44;;;4.17;100.00
10470;BME280;5282;47.052;15.458;2023-03-19T00:05:20;97513.06;;;4.22;100.00
10470;BME280;5282;47.052;15.458;2023-03-19T00:07:47;97506.94;;;4.31;100.00
10470;BME280;5282;47.052;15.458;2023-03-19T00:10:14;97509.75;;;4.29;100.00
10470;BME280;5282;47.052;15.458;2023-03-19T00:12:41;97497.09;;;4.43;100.00
10470;BME280;5282;47.052;15.458;2023-03-19T00:15:09;97496.13;;;4.32;100.00
10470;BME280;5282;47.052;15.458;2023-03-19T00:17:39;97504.88;;;4.35;100.00
10470;BME280;5282;47.052;15.458;2023-03-19T00:20:10;97510.91;;;4.37;100.00
10470;BME280;5282;47.052;15.458;2023-03-19T00:22:39;97501.22;;;4.36;100.00
10470;BME280;5282;47.052;15.458;2023-03-19T00:25:07;97506.84;;;4.21;100.00
10470;BME280;5282;47.052;15.458;2023-03-19T00:27:34;97509.06;;;4.16;100.00
10470;BME280;5282;47.052;15.458;2023-03-19T00:30:02;97509.19;;;4.14;100.00
10470;BME280;5282;47.052;15.458;2023-03-19T00:32:29;97506.22;;;4.08;100.00
10470;BME280;5282;47.052;15.458;2023-03-19T00:34:58;97518.84;;;3.94;100.00
10470;BME280;5282;47.052;15.458;2023-03-19T00:37:27;97510.00;;;3.94;100.00
10470;BME280;5282;47.052;15.458;2023-03-19T00:39:54;97512.28;;;3.98;100.00
10470;BME280;5282;47.052;15.458;2023-03-19T00:42:24;97512.03;;;4.01;100.00
10470;BME280;5282;47.052;15.458;2023-03-19T00:44:51;97506.13;;;3.98;100.00
10470;BME280;5282;47.052;15.458;2023-03-19T00:47:18;97503.94;;;3.92;100.00
10470;BME280;5282;47.052;15.458;2023-03-19T00:49:45;97495.63;;;3.85;100.00
10470;BME280;5282;47.052;15.458;2023-03-19T00:52:12;97494.91;;;3.83;100.00
10470;BME280;5282;47.052;15.458;2023-03-19T00:54:40;97505.56;;;3.83;100.00
10470;BME280;5282;47.052;15.458;2023-03-19T00:57:08;97493.59;;;3.77;100.00
10470;BME280;5282;47.052;15.458;2023-03-19T00:59:35;97493.47;;;3.79;100.00
10470;BME280;5282;47.052;15.458;2023-03-19T01:02:02;97491.31;;;3.73;100.00
10470;BME280;5282;47.052;15.458;2023-03-19T01:04:30;97489.09;;;3.78;100.00
10470;BME280;5282;47.052;15.458;2023-03-19T01:06:57;97496.34;;;3.87;100.00
10470;BME280;5282;47.052;15.458;2023-03-19T01:09:24;97501.47;;;3.79;100.00
10470;BME280;5282;47.052;15.458;2023-03-19T01:11:53;97501.97;;;3.73;100.00
10470;BME280;5282;47.052;15.458;2023-03-19T01:14:20;97509.50;;;3.56;100.00
10470;BME280;5282;47.052;15.458;2023-03-19T01:16:47;97502.88;;;3.28;100.00
10470;BME280;5282;47.052;15.458;2023-03-19T01:19:15;97492.09;;;3.29;100.00
10470;BME280;5282;47.052;15.458;2023-03-19T01:21:42;97484.25;;;3.39;100.00
10470;BME280;5282;47.052;15.458;2023-03-19T01:24:10;97486.91;;;3.28;100.00
10470;BME280;5282;47.052;15.458;2023-03-19T01:26:37;97487.31;;;3.00;100.00
10470;BME280;5282;47.052;15.458;2023-03-19T01:29:06;97492.63;;;2.77;100.00
10470;BME280;5282;47.052;15.458;2023-03-19T01:31:33;97488.78;;;2.93;100.00
10470;BME280;5282;47.052;15.458;2023-03-19T01:34:00;97488.13;;;2.78;100.00
10470;BME280;5282;47.052;15.458;2023-03-19T01:36:27;97494.06;;;2.70;100.00
10470;BME280;5282;47.052;15.458;2023-03-19T01:38:54;97487.53;;;2.86;100.00
10470;BME280;5282;47.052;15.458;2023-03-19T01:41:22;97484.16;;;3.06;100.00
10470;BME280;5282;47.052;15.458;2023-03-19T01:43:49;97489.84;;;2.90;100.00
10470;BME280;5282;47.052;15.458;2023-03-19T01:46:23;97487.53;;;2.86;100.00
10470;BME280;5282;47.052;15.458;2023-03-19T01:48:56;97479.91;;;3.04;100.00
10470;BME280;5282;47.052;15.458;2023-03-19T01:51:26;97485.84;;;2.96;100.00
10470;BME280;5282;47.052;15.458;2023-03-19T01:53:57;97481.00;;;2.67;100.00
10470;BME280;5282;47.052;15.458;2023-03-19T01:56:27;97476.47;;;2.34;100.00
10470;BME280;5282;47.052;15.458;2023-03-19T01:59:00;97481.91;;;2.32;100.00
10470;BME280;5282;47.052;15.458;2023-03-19T02:01:31;97485.41;;;2.33;100.00
10470;BME280;5282;47.052;15.458;2023-03-19T02:04:06;97472.44;;;2.75;100.00
10470;BME280;5282;47.052;15.458;2023-03-19T02:06:34;97481.13;;;2.88;100.00
10470;BME280;5282;47.052;15.458;2023-03-19T02:09:03;97472.44;;;2.86;100.00
10470;BME280;5282;47.052;15.458;2023-03-19T02:11:30;97473.50;;;2.84;100.00
10470;BME280;5282;47.052;15.458;2023-03-19T02:13:58;97480.78;;;2.82;100.00
10470;BME280;5282;47.052;15.458;2023-03-19T02:16:25;97477.03;;;2.73;100.00
10470;BME280;5282;47.052;15.458;2023-03-19T02:18:53;97483.66;;;2.56;100.00
10470;BME280;5282;47.052;15.458;2023-03-19T02:21:22;97493.41;;;2.44;100.00
10470;BME280;5282;47.052;15.458;2023-03-19T02:23:53;97489.81;;;2.56;100.00
10470;BME280;5282;47.052;15.458;2023-03-19T02:26:26;97487.53;;;2.63;100.00
10470;BME280;5282;47.052;15.458;2023-03-19T02:28:55;97490.38;;;2.49;100.00
10470;BME280;5282;47.052;15.458;2023-03-19T02:31:23;97483.06;;;2.64;100.00
10470;BME280;5282;47.052;15.458;2023-03-19T02:33:58;97485.78;;;2.39;100.00
10470;BME280;5282;47.052;15.458;2023-03-19T02:36:27;97491.56;;;2.33;100.00
10470;BME280;5282;47.052;15.458;2023-03-19T02:38:59;97489.88;;;2.32;100.00
10470;BME280;5282;47.052;15.458;2023-03-19T02:41:30;97484.63;;;2.55;100.00
10470;BME280;5282;47.052;15.458;2023-03-19T02:44:01;97481.00;;;2.56;100.00
10470;BME280;5282;47.052;15.458;2023-03-19T02:46:29;97479.25;;;2.32;100.00
10470;BME280;5282;47.052;15.458;2023-03-19T02:48:56;97472.94;;;2.22;100.00
10470;BME280;5282;47.052;15.458;2023-03-19T02:51:23;97479.41;;;2.06;100.00
10470;BME280;5282;47.052;15.458;2023-03-19T02:53:51;97484.94;;;2.03;100.00
10470;BME280;5282;47.052;15.458;2023-03-19T02:56:18;97480.44;;;2.28;100.00
10470;BME280;5282;47.052;15.458;2023-03-19T02:58:46;97480.44;;;2.28;100.00
10470;BME280;5282;47.052;15.458;2023-03-19T03:01:13;97493.97;;;2.36;100.00
10470;BME280;5282;47.052;15.458;2023-03-19T03:03:41;97488.44;;;2.39;100.00
10470;BME280;5282;47.052;15.458;2023-03-19T03:06:09;97484.66;;;2.30;100.00
10470;BME280;5282;47.052;15.458;2023-03-19T03:08:39;97494.03;;;2.12;100.00
10470;BME280;5282;47.052;15.458;2023-03-19T03:11:20;97484.56;;;2.32;100.00
10470;BME280;5282;47.052;15.458;2023-03-19T03:13:49;97476.13;;;2.38;100.00
10470;BME280;5282;47.052;15.458;2023-03-19T03:16:26;97480.69;;;2.36;100.00
10470;BME280;5282;47.052;15.458;2023-03-19T03:18:53;97483.00;;;2.29;100.00
10470;BME280;5282;47.052;15.458;2023-03-19T03:21:21;97479.59;;;1.92;100.00
10470;BME280;5282;47.052;15.458;2023-03-19T03:23:49;97476.59;;;1.96;100.00
10470;BME280;5282;47.052;15.458;2023-03-19T03:26:20;97477.97;;;2.13;100.00
10470;BME280;5282;47.052;15.458;2023-03-19T03:28:50;97477.59;;;1.95;100.00
10470;BME280;5282;47.052;15.458;2023-03-19T03:31:18;97485.16;;;2.24;100.00
10470;BME280;5282;47.052;15.458;2023-03-19T03:33:45;97478.50;;;2.19;100.00
10470;BME280;5282;47.052;15.458;2023-03-19T03:36:15;97478.00;;;2.25;100.00
10470;BME280;5282;47.052;15.458;2023-03-19T03:38:44;97483.41;;;2.12;100.00
10470;BME280;5282;47.052;15.458;2023-03-19T03:41:10;97487.41;;;2.18;100.00
10470;BME280;5282;47.052;15.458;2023-03-19T03:43:37;97492.28;;;2.24;100.00
10470;BME280;5282;47.052;15.458;2023-03-19T03:46:07;97489.13;;;2.19;100.00
10470;BME280;5282;47.052;15.458;2023-03-19T03:48:34;97482.84;;;1.84;100.00
10470;BME280;5282;47.052;15.458;2023-03-19T03:51:01;97477.19;;;1.89;100.00
10470;BME280;5282;47.052;15.458;2023-03-19T03:53:29;97478.69;;;2.04;100.00
10470;BME280;5282;47.052;15.458;2023-03-19T03:55:58;97467.69;;;2.09;100.00
10470;BME280;5282;47.052;15.458;2023-03-19T03:58:26;97478.41;;;1.96;100.00
10470;BME280;5282;47.052;15.458;2023-03-19T04:00:53;97470.72;;;2.04;100.00
10470;BME280;5282;47.052;15.458;2023-03-19T04:03:22;97468.66;;;2.08;100.00
10470;BME280;5282;47.052;15.458;2023-03-19T04:05:49;97475.09;;;2.16;100.00
10470;BME280;5282;47.052;15.458;2023-03-19T04:08:16;97470.13;;;2.12;100.00
10470;BME280;5282;47.052;15.458;2023-03-19T04:10:43;97471.97;;;2.11;100.00
10470;BME280;5282;47.052;15.458;2023-03-19T04:13:11;97477.72;;;2.05;100.00
10470;BME280;5282;47.052;15.458;2023-03-19T04:15:41;97484.72;;;2.06;100.00
10470;BME280;5282;47.052;15.458;2023-03-19T04:18:08;97479.16;;;1.98;100.00
10470;BME280;5282;47.052;15.458;2023-03-19T04:20:36;97475.03;;;1.94;100.00
10470;BME280;5282;47.052;15.458;2023-03-19T04:23:03;97471.53;;;1.93;100.00
10470;BME280;5282;47.052;15.458;2023-03-19T04:25:30;97471.41;;;1.95;100.00
10470;BME280;5282;47.052;15.458;2023-03-19T04:27:57;97465.25;;;1.94;100.00
10470;BME280;5282;47.052;15.458;2023-03-19T04:30:24;97470.91;;;1.90;100.00
10470;BME280;5282;47.052;15.458;2023-03-19T04:32:54;97470.00;;;1.78;100.00
10470;BME280;5282;47.052;15.458;2023-03-19T04:35:21;97473.97;;;1.48;100.00
10470;BME280;5282;47.052;15.458;2023-03-19T04:37:49;97475.53;;;1.50;100.00
10470;BME280;5282;47.052;15.458;2023-03-19T04:40:17;97475.88;;;1.70;100.00
10470;BME280;5282;47.052;15.458;2023-03-19T04:42:44;97477.41;;;1.61;100.00
10470;BME280;5282;47.052;15.458;2023-03-19T04:45:11;97479.06;;;1.75;100.00
10470;BME280;5282;47.052;15.458;2023-03-19T04:47:38;97463.63;;;1.80;100.00
10470;BME280;5282;47.052;15.458;2023-03-19T04:50:06;97463.06;;;1.39;100.00
10470;BME280;5282;47.052;15.458;2023-03-19T04:52:36;97461.19;;;1.29;100.00
10470;BME280;5282;47.052;15.458;2023-03-19T04:55:06;97461.13;;;1.17;100.00
10470;BME280;5282;47.052;15.458;2023-03-19T04:57:34;97461.47;;;1.37;100.00
10470;BME280;5282;47.052;15.458;2023-03-19T05:00:01;97470.78;;;1.67;100.00
10470;BME280;5282;47.052;15.458;2023-03-19T05:02:28;97477.09;;;1.66;100.00
10470;BME280;5282;47.052;15.458;2023-03-19T05:04:55;97480.06;;;1.61;100.00
10470;BME280;5282;47.052;15.458;2023-03-19T05:07:22;97473.63;;;1.52;100.00
10470;BME280;5282;47.052;15.458;2023-03-19T05:09:49;97484.31;;;1.64;100.00
10470;BME280;5282;47.052;15.458;2023-03-19T05:12:17;97488.53;;;1.66;100.00
10470;BME280;5282;47.052;15.458;2023-03-19T05:14:44;97490.38;;;1.53;100.00
10470;BME280;5282;47.052;15.458;2023-03-19T05:17:11;97487.19;;;1.61;100.00
10470;BME280;5282;47.052;15.458;2023-03-19T05:19:39;97490.88;;;1.34;100.00
10470;BME280;5282;47.052;15.458;2023-03-19T05:22:07;97487.66;;;1.17;100.00
10470;BME280;5282;47.052;15.458;2023-03-19T05:24:33;97481.06;;;1.10;100.00
10470;BME280;5282;47.052;15.458;2023-03-19T05:27:00;97483.13;;;0.94;100.00
10470;BME280;5282;47.052;15.458;2023-03-19T05:29:29;97478.56;;;0.96;100.00
10470;BME280;5282;47.052;15.458;2023-03-19T05:31:56;97485.44;;;0.98;100.00
10470;BME280;5282;47.052;15.458;2023-03-19T05:34:26;97489.97;;;1.22;100.00
10470;BME280;5282;47.052;15.458;2023-03-19T05:36:53;97494.97;;;1.51;100.00
10470;BME280;5282;47.052;15.458;2023-03-19T05:39:20;97482.44;;;1.53;100.00
10470;BME280;5282;47.052;15.458;2023-03-19T05:41:47;97485.09;;;1.53;100.00
10470;BME280;5282;47.052;15.458;2023-03-19T05:44:14;97492.53;;;1.72;100.00
10470;BME280;5282;47.052;15.458;2023-03-19T05:46:43;97508.88;;;1.79;100.00
10470;BME280;5282;47.052;15.458;2023-03-19T05:49:11;97498.69;;;1.97;100.00
10470;BME280;5282;47.052;15.458;2023-03-19T05:51:37;97504.53;;;1.78;100.00
10470;BME280;5282;47.052;15.458;2023-03-19T05:54:07;97506.44;;;2.00;100.00
10470;BME280;5282;47.052;15.458;2023-03-19T05:56:34;97509.03;;;2.13;100.00
10470;BME280;5282;47.052;15.458;2023-03-19T05:59:01;97506.53;;;2.23;100.00
10470;BME280;5282;47.052;15.458;2023-03-19T06:01:31;97506.03;;;2.29;100.00
10470;BME280;5282;47.052;15.458;2023-03-19T06:03:59;97504.38;;;2.39;100.00
10470;BME280;5282;47.052;15.458;2023-03-19T06:06:26;97503.06;;;2.45;100.00
10470;BME280;5282;47.052;15.458;2023-03-19T06:08:53;97501.16;;;2.58;100.00
10470;BME280;5282;47.052;15.458;2023-03-19T06:11:20;97504.44;;;2.73;100.00
10470;BME280;5282;47.052;15.458;2023-03-19T06:13:46;97504.22;;;2.76;100.00
10470;BME280;5282;47.052;15.458;2023-03-19T06:16:13;97506.75;;;2.78;100.00
10470;BME280;5282;47.052;15.458;2023-03-19T06:18:41;97504.47;;;2.85;100.00
10470;BME280;5282;47.052;15.458;2023-03-19T06:21:09;97502.91;;;3.05;100.00
10470;BME280;5282;47.052;15.458;2023-03-19T06:23:36;97508.72;;;3.21;100.00
10470;BME280;5282;47.052;15.458;2023-03-19T06:26:03;97513.41;;;3.29;100.00
10470;BME280;5282;47.052;15.458;2023-03-19T06:28:30;97509.41;;;3.35;100.00
10470;BME280;5282;47.052;15.458;2023-03-19T06:30:57;97506.16;;;3.31;100.00
10470;BME280;5282;47.052;15.458;2023-03-19T06:33:24;97502.06;;;3.27;100.00
10470;BME280;5282;47.052;15.458;2023-03-19T06:35:56;97504.59;;;3.29;100.00
10470;BME280;5282;47.052;15.458;2023-03-19T06:38:24;97500.47;;;3.13;100.00
10470;BME280;5282;47.052;15.458;2023-03-19T06:40:51;97503.63;;;3.18;100.00
10470;BME280;5282;47.052;15.458;2023-03-19T06:43:18;97504.56;;;3.40;100.00
10470;BME280;5282;47.052;15.458;2023-03-19T06:45:46;97500.44;;;3.47;100.00
10470;BME280;5282;47.052;15.458;2023-03-19T06:48:13;97507.09;;;3.42;100.00
10470;BME280;5282;47.052;15.458;2023-03-19T06:50:41;97502.06;;;3.71;100.00
10470;BME280;5282;47.052;15.458;2023-03-19T06:53:08;97493.56;;;3.89;100.00
10470;BME280;5282;47.052;15.458;2023-03-19T06:55:36;97496.38;;;4.08;100.00
10470;BME280;5282;47.052;15.458;2023-03-19T06:58:04;97496.47;;;4.18;100.00
10470;BME280;5282;47.052;15.458;2023-03-19T07:00:31;97500.84;;;4.19;100.00
10470;BME280;5282;47.052;15.458;2023-03-19T07:02:58;97503.81;;;4.26;100.00
10470;BME280;5282;47.052;15.458;2023-03-19T07:05:26;97501.75;;;4.29;100.00
10470;BME280;5282;47.052;15.458;2023-03-19T07:07:53;97489.13;;;4.53;100.00
10470;BME280;5282;47.052;15.458;2023-03-19T07:10:20;97500.06;;;4.71;100.00
10470;BME280;5282;47.052;15.458;2023-03-19T07:12:48;97508.22;;;4.79;100.00
10470;BME280;5282;47.052;15.458;2023-03-19T07:15:15;97496.38;;;4.93;100.00
10470;BME280;5282;47.052;15.458;2023-03-19T07:17:45;97494.59;;;5.03;100.00
10470;BME280;5282;47.052;15.458;2023-03-19T07:20:12;97493.91;;;5.01;100.00
10470;BME280;5282;47.052;15.458;2023-03-19T07:22:40;97491.22;;;5.01;100.00
10470;BME280;5282;47.052;15.458;2023-03-19T07:25:07;97488.28;;;5.04;100.00
10470;BME280;5282;47.052;15.458;2023-03-19T07:27:35;97499.22;;;5.32;100.00
10470;BME280;5282;47.052;15.458;2023-03-19T07:30:06;97506.41;;;5.41;100.00
10470;BME280;5282;47.052;15.458;2023-03-19T07:32:34;97499.56;;;5.59;100.00
10470;BME280;5282;47.052;15.458;2023-03-19T07:35:03;97497.78;;;5.69;100.00
10470;BME280;5282;47.052;15.458;2023-03-19T07:37:31;97495.66;;;5.82;100.00
10470;BME280;5282;47.052;15.458;2023-03-19T07:39:57;97489.09;;;5.96;100.00
10470;BME280;5282;47.052;15.458;2023-03-19T07:42:24;97498.56;;;6.10;99.25
10470;BME280;5282;47.052;15.458;2023-03-19T07:44:51;97498.97;;;6.35;98.80
10470;BME280;5282;47.052;15.458;2023-03-19T07:47:20;97490.91;;;6.64;93.69
10470;BME280;5282;47.052;15.458;2023-03-19T07:49:47;97496.38;;;6.83;92.39
10470;BME280;5282;47.052;15.458;2023-03-19T07:52:14;97499.44;;;6.88;92.49
10470;BME280;5282;47.052;15.458;2023-03-19T07:54:43;97500.13;;;7.00;87.58
10470;BME280;5282;47.052;15.458;2023-03-19T07:57:11;97490.03;;;7.21;89.29
10470;BME280;5282;47.052;15.458;2023-03-19T07:59:37;97485.72;;;7.38;85.56
10470;BME280;5282;47.052;15.458;2023-03-19T08:02:05;97487.50;;;7.48;81.21
10470;BME280;5282;47.052;15.458;2023-03-19T08:04:33;97482.94;;;7.58;78.04
10470;BME280;5282;47.052;15.458;2023-03-19T08:07:00;97480.13;;;7.78;76.29
10470;BME280;5282;47.052;15.458;2023-03-19T08:09:27;97476.78;;;8.12;75.13
10470;BME280;5282;47.052;15.458;2023-03-19T08:11:54;97475.53;;;8.24;74.80
10470;BME280;5282;47.052;15.458;2023-03-19T08:14:21;97469.63;;;8.39;75.74
10470;BME280;5282;47.052;15.458;2023-03-19T08:16:48;97480.97;;;8.69;69.98
10470;BME280;5282;47.052;15.458;2023-03-19T08:19:15;97479.28;;;8.68;69.58
10470;BME280;5282;47.052;15.458;2023-03-19T08:21:44;97472.81;;;8.78;71.13
10470;BME280;5282;47.052;15.458;2023-03-19T08:24:11;97464.59;;;9.06;67.23
10470;BME280;5282;47.052;15.458;2023-03-19T08:26:38;97459.75;;;9.10;66.53
10470;BME280;5282;47.052;15.458;2023-03-19T08:29:05;97461.03;;;8.98;64.88
10470;BME280;5282;47.052;15.458;2023-03-19T08:31:32;97454.44;;;9.26;66.71
10470;BME280;5282;47.052;15.458;2023-03-19T08:33:59;97445.38;;;9.27;67.77
10470;BME280;5282;47.052;15.458;2023-03-19T08:36:28;97452.53;;;9.53;64.20
10470;BME280;5282;47.052;15.458;2023-03-19T08:38:57;97466.47;;;9.57;63.20
10470;BME280;5282;47.052;15.458;2023-03-19T08:41:24;97469.47;;;9.46;62.46
10470;BME280;5282;47.052;15.458;2023-03-19T08:43:51;97476.63;;;9.71;62.30
10470;BME280;5282;47.052;15.458;2023-03-19T08:46:18;97478.97;;;9.75;60.99
10470;BME280;5282;47.052;15.458;2023-03-19T08:48:45;97484.91;;;9.95;61.41
10470;BME280;5282;47.052;15.458;2023-03-19T08:51:13;97487.63;;;10.19;56.02
10470;BME280;5282;47.052;15.458;2023-03-19T08:53:40;97485.75;;;9.95;59.31
10470;BME280;5282;47.052;15.458;2023-03-19T08:56:08;97483.06;;;9.95;58.77
10470;BME280;5282;47.052;15.458;2023-03-19T08:58:35;97490.50;;;10.26;58.23
10470;BME280;5282;47.052;15.458;2023-03-19T09:01:08;97494.72;;;10.37;59.88
10470;BME280;5282;47.052;15.458;2023-03-19T09:03:38;97487.34;;;10.47;59.06
10470;BME280;5282;47.052;15.458;2023-03-19T09:06:07;97482.28;;;10.69;58.13
10470;BME280;5282;47.052;15.458;2023-03-19T09:08:35;97479.22;;;10.89;56.28
10470;BME280;5282;47.052;15.458;2023-03-19T09:11:04;97474.22;;;10.69;54.58
10470;BME280;5282;47.052;15.458;2023-03-19T09:13:33;97479.44;;;10.79;54.80
10470;BME280;5282;47.052;15.458;2023-03-19T09:16:00;97466.06;;;11.02;55.32
10470;BME280;5282;47.052;15.458;2023-03-19T09:18:28;97477.31;;;11.22;52.25
10470;BME280;5282;47.052;15.458;2023-03-19T09:20:55;97475.72;;;11.45;50.98
10470;BME280;5282;47.052;15.458;2023-03-19T09:23:22;97475.47;;;11.63;51.52
10470;BME280;5282;47.052;15.458;2023-03-19T09:25:49;97472.88;;;11.78;50.62
10470;BME280;5282;47.052;15.458;2023-03-19T09:28:16;97472.31;;;11.91;50.25
10470;BME280;5282;47.052;15.458;2023-03-19T09:30:46;97473.22;;;11.75;50.40
10470;BME280;5282;47.052;15.458;2023-03-19T09:33:14;97458.94;;;11.97;50.04
10470;BME280;5282;47.052;15.458;2023-03-19T09:35:41;97459.09;;;12.04;49.29
10470;BME280;5282;47.052;15.458;2023-03-19T09:38:08;97457.00;;;11.83;48.48
10470;BME280;5282;47.052;15.458;2023-03-19T09:40:37;97462.19;;;12.24;48.76
10470;BME280;5282;47.052;15.458;2023-03-19T09:43:26;97452.47;;;12.53;47.47
10470;BME280;5282;47.052;15.458;2023-03-19T09:46:01;97454.31;;;12.76;46.38
10470;BME280;5282;47.052;15.458;2023-03-19T09:48:33;97450.53;;;13.15;44.48
10470;BME280;5282;47.052;15.458;2023-03-19T09:51:04;97442.44;;;13.15;43.33
10470;BME280;5282;47.052;15.458;2023-03-19T09:53:38;97447.63;;;13.02;45.98
10470;BME280;5282;47.052;15.458;2023-03-19T09:56:11;97451.84;;;13.34;45.07
10470;BME280;5282;47.052;15.458;2023-03-19T09:58:41;97464.25;;;13.29;42.78
10470;BME280;5282;47.052;15.458;2023-03-19T10:01:22;97451.31;;;12.71;43.96
10470;BME280;5282;47.052;15.458;2023-03-19T10:04:02;97439.41;;;13.25;44.79
10470;BME280;5282;47.052;15.458;2023-03-19T10:06:33;97439.41;;;13.70;44.93
10470;BME280;5282;47.052;15.458;2023-03-19T10:09:31;97431.78;;;13.95;43.26
10470;BME280;5282;47.052;15.458;2023-03-19T10:12:10;97434.94;;;13.99;43.01
10470;BME280;5282;47.052;15.458;2023-03-19T10:15:00;97436.69;;;14.28;41.46
10470;BME280;5282;47.052;15.458;2023-03-19T10:17:33;97433.00;;;14.58;40.42
10470;BME280;5282;47.052;15.458;2023-03-19T10:20:08;97431.47;;;14.70;39.10
10470;BME280;5282;47.052;15.458;2023-03-19T10:22:39;97429.13;;;14.89;38.99
10470;BME280;5282;47.052;15.458;2023-03-19T10:25:10;97420.00;;;15.03;39.05
10470;BME280;5282;47.052;15.458;2023-03-19T10:27:40;97420.44;;;15.00;38.97
10470;BME280;5282;47.052;15.458;2023-03-19T10:30:12;97414.97;;;15.29;38.18
10470;BME280;5282;47.052;15.458;2023-03-19T10:32:43;97413.75;;;15.38;38.08
10470;BME280;5282;47.052;15.458;2023-03-19T10:35:17;97419.06;;;15.18;37.68
10470;BME280;5282;47.052;15.458;2023-03-19T10:37:44;97414.19;;;15.41;38.52
10470;BME280;5282;47.052;15.458;2023-03-19T10:40:18;97431.06;;;14.73;38.50
10470;BME280;5282;47.052;15.458;2023-03-19T10:42:55;97422.75;;;15.45;37.54
10470;BME280;5282;47.052;15.458;2023-03-19T10:45:30;97422.78;;;15.52;38.55
10470;BME280;5282;47.052;15.458;2023-03-19T10:48:00;97411.69;;;15.40;36.47
10470;BME280;5282;47.052;15.458;2023-03-19T10:50:29;97408.59;;;15.56;37.50
10470;BME280;5282;47.052;15.458;2023-03-19T10:53:04;97412.50;;;15.89;36.49
10470;BME280;5282;47.052;15.458;2023-03-19T10:55:32;97406.94;;;16.17;36.61
10470;BME280;5282;47.052;15.458;2023-03-19T10:58:15;97403.78;;;16.07;37.33
10470;BME280;5282;47.052;15.458;2023-03-19T11:00:45;97402.22;;;15.78;36.91
10470;BME280;5282;47.052;15.458;2023-03-19T11:03:29;97396.56;;;15.72;37.37
10470;BME280;5282;47.052;15.458;2023-03-19T11:06:03;97401.19;;;15.79;37.82
10470;BME280;5282;47.052;15.458;2023-03-19T11:08:33;97394.94;;;15.85;36.47
10470;BME280;5282;47.052;15.458;2023-03-19T11:11:01;97391.47;;;16.04;37.10
10470;BME280;5282;47.052;15.458;2023-03-19T11:13:29;97391.00;;;16.01;36.66
10470;BME280;5282;47.052;15.458;2023-03-19T11:15:58;97396.16;;;15.82;37.42
10470;BME280;5282;47.052;15.458;2023-03-19T11:18:29;97389.13;;;15.88;37.40
10470;BME280;5282;47.052;15.458;2023-03-19T11:21:06;97393.66;;;15.74;37.48
10470;BME280;5282;47.052;15.458;2023-03-19T11:23:38;97385.69;;;15.72;35.95
10470;BME280;5282;47.052;15.458;2023-03-19T11:26:05;97385.69;;;15.72;37.89
10470;BME280;5282;47.052;15.458;2023-03-19T11:28:36;97390.38;;;15.85;37.28
10470;BME280;5282;47.052;15.458;2023-03-19T11:31:11;97381.63;;;15.90;38.07
10470;BME280;5282;47.052;15.458;2023-03-19T11:33:55;97383.16;;;15.64;37.90
10470;BME280;5282;47.052;15.458;2023-03-19T11:36:27;97390.81;;;14.70;38.87
10470;BME280;5282;47.052;15.458;2023-03-19T11:39:10;97391.84;;;15.39;38.55
10470;BME280;5282;47.052;15.458;2023-03-19T11:41:53;97388.75;;;16.18;37.07
10470;BME280;5282;47.052;15.458;2023-03-19T11:44:28;97387.72;;;16.32;37.01
10470;BME280;5282;47.052;15.458;2023-03-19T11:47:06;97380.41;;;16.66;37.32
10470;BME280;5282;47.052;15.458;2023-03-19T11:49:50;97382.88;;;17.02;36.21
10470;BME280;5282;47.052;15.458;2023-03-19T11:52:23;97382.88;;;17.08;35.70
10470;BME280;5282;47.052;15.458;2023-03-19T11:55:03;97372.06;;;17.47;35.14
10470;BME280;5282;47.052;15.458;2023-03-19T11:57:46;97375.03;;;17.39;34.79
10470;BME280;5282;47.052;15.458;2023-03-19T12:00:27;97360.00;;;17.75;33.91
10470;BME280;5282;47.052;15.458;2023-03-19T12:03:22;97353.91;;;18.18;34.17
10470;BME280;5282;47.052;15.458;2023-03-19T12:05:58;97355.81;;;18.43;34.51
10470;BME280;5282;47.052;15.458;2023-03-19T12:08:31;97352.44;;;18.16;35.30
10470;BME280;5282;47.052;15.458;2023-03-19T12:11:15;97356.16;;;18.72;34.97
10470;BME280;5282;47.052;15.458;2023-03-19T12:13:52;97349.34;;;19.07;33.85
10470;BME280;5282;47.052;15.458;2023-03-19T12:16:30;97345.28;;;18.22;33.84
10470;BME280;5282;47.052;15.458;2023-03-19T12:19:16;97352.63;;;17.43;35.85
10470;BME280;5282;47.052;15.458;2023-03-19T12:21:56;97351.56;;;17.83;34.91
10470;BME280;5282;47.052;15.458;2023-03-19T12:24:33;97345.88;;;18.24;36.39
10470;BME280;5282;47.052;15.458;2023-03-19T12:27:17;97349.13;;;18.39;35.97
10470;BME280;5282;47.052;15.458;2023-03-19T12:29:54;97344.03;;;18.93;34.70
10470;BME280;5282;47.052;15.458;2023-03-19T12:32:32;97348.06;;;18.40;35.30
10470;BME280;5282;47.052;15.458;2023-03-19T12:35:10;97344.41;;;19.34;34.15
10470;BME280;5282;47.052;15.458;2023-03-19T12:37:45;97346.94;;;19.66;32.95
10470;BME280;5282;47.052;15.458;2023-03-19T12:40:24;97337.22;;;19.70;32.18
10470;BME280;5282;47.052;15.458;2023-03-19T12:42:55;97338.75;;;19.66;33.49
10470;BME280;5282;47.052;15.458;2023-03-19T12:45:28;97346.91;;;18.99;33.36
10470;BME280;5282;47.052;15.458;2023-03-19T12:48:01;97347.16;;;17.50;35.53
10470;BME280;5282;47.052;15.458;2023-03-19T12:50:32;97344.66;;;18.19;35.28
10470;BME280;5282;47.052;15.458;2023-03-19T12:53:06;97346.53;;;18.95;34.23
10470;BME280;5282;47.052;15.458;2023-03-19T12:55:39;97339.53;;;19.55;33.77
10470;BME280;5282;47.052;15.458;2023-03-19T12:58:15;97351.78;;;19.83;33.37
10470;BME280;5282;47.052;15.458;2023-03-19T13:00:50;97343.63;;;19.95;33.06
10470;BME280;5282;47.052;15.458;2023-03-19T13:03:23;97338.28;;;19.88;32.64
10470;BME280;5282;47.052;15.458;2023-03-19T13:05:58;97340.34;;;19.25;33.24
10470;BME280;5282;47.052;15.458;2023-03-19T13:08:31;97337.81;;;19.23;33.37
10470;BME280;5282;47.052;15.458;2023-03-19T13:11:04;97349.53;;;18.87;33.96
10470;BME280;5282;47.052;15.458;2023-03-19T13:13:39;97343.47;;;18.09;33.76